createdAt,value
2018-04-17T00:01:03.036Z,83.10
2018-04-17T00:03:32.175Z,82.43
2018-04-17T00:06:01.328Z,80.10
2018-04-17T00:08:30.476Z,81.30
2018-04-17T00:10:59.618Z,80.97
2018-04-17T00:13:28.764Z,79.50
2018-04-17T00:15:57.880Z,81.67
2018-04-17T00:18:27.112Z,81.40
2018-04-17T00:20:56.220Z,86.03
2018-04-17T00:23:25.334Z,82.17
2018-04-17T00:25:54.466Z,79.70
2018-04-17T00:28:23.581Z,80.67
2018-04-17T00:30:52.711Z,81.20
2018-04-17T00:33:21.912Z,81.07
2018-04-17T00:35:51.020Z,90.13
2018-04-17T00:38:20.159Z,82.50
2018-04-17T00:40:49.327Z,81.93
2018-04-17T00:43:19.371Z,83.90
2018-04-17T00:45:48.499Z,81.80
2018-04-17T00:48:17.654Z,82.97
2018-04-17T00:50:46.833Z,79.93
2018-04-17T00:53:22.132Z,79.63
2018-04-17T00:55:51.919Z,80.90
2018-04-17T00:58:21.055Z,82.07
2018-04-17T01:00:50.181Z,81.33
2018-04-17T01:03:19.327Z,79.87
2018-04-17T01:05:48.515Z,81.77
2018-04-17T01:08:17.657Z,80.33
2018-04-17T01:10:46.822Z,82.43
2018-04-17T01:13:15.970Z,83.50
2018-04-17T01:15:45.077Z,81.77
2018-04-17T01:18:14.305Z,85.00
2018-04-17T01:20:43.437Z,82.80
2018-04-17T01:23:12.560Z,84.73
2018-04-17T01:25:41.724Z,83.27
2018-04-17T01:28:10.856Z,82.33
2018-04-17T01:30:39.975Z,86.60
2018-04-17T01:33:09.174Z,82.00
2018-04-17T01:35:38.345Z,82.00
2018-04-17T01:38:07.480Z,84.30
2018-04-17T01:40:36.693Z,81.97
2018-04-17T01:43:05.823Z,82.83
2018-04-17T01:45:34.945Z,84.53
2018-04-17T01:48:04.117Z,83.13
2018-04-17T01:50:33.271Z,85.40
2018-04-17T01:53:02.407Z,83.27
2018-04-17T01:55:31.769Z,87.73
2018-04-17T01:58:00.883Z,83.17
2018-04-17T02:00:30.001Z,85.17
2018-04-17T02:02:59.165Z,86.57
2018-04-17T02:05:28.283Z,88.17
2018-04-17T02:07:57.488Z,85.40
2018-04-17T02:10:26.669Z,83.07
2018-04-17T02:12:55.785Z,84.10
2018-04-17T02:15:24.948Z,84.30
2018-04-17T02:17:54.096Z,85.33
2018-04-17T02:20:23.239Z,85.20
2018-04-17T02:22:52.377Z,85.50
2018-04-17T02:25:21.496Z,85.17
2018-04-17T02:27:50.657Z,88.27
2018-04-17T02:30:19.799Z,83.80
2018-04-17T02:32:48.937Z,84.00
2018-04-17T02:35:18.054Z,86.47
2018-04-17T02:37:47.195Z,92.80
2018-04-17T02:40:16.363Z,88.73
2018-04-17T02:42:45.511Z,86.83
2018-04-17T02:45:14.628Z,85.60
2018-04-17T02:47:43.853Z,92.13
2018-04-17T02:50:12.995Z,82.80
2018-04-17T02:52:42.161Z,82.07
2018-04-17T02:55:11.327Z,84.10
2018-04-17T02:57:40.891Z,85.47
2018-04-17T03:00:10.036Z,83.80
2018-04-17T03:02:39.217Z,87.80
2018-04-17T03:05:08.356Z,86.47
2018-04-17T03:07:37.496Z,82.40
2018-04-17T03:10:06.644Z,83.97
2018-04-17T03:12:35.752Z,87.30
2018-04-17T03:15:04.904Z,87.37
2018-04-17T03:17:34.045Z,82.47
2018-04-17T03:20:03.182Z,89.30
2018-04-17T03:22:32.332Z,87.60
2018-04-17T03:25:01.453Z,82.00
2018-04-17T03:27:30.570Z,83.43
2018-04-17T03:29:59.688Z,86.83
2018-04-17T03:32:28.814Z,82.57
2018-04-17T03:34:57.973Z,87.73
2018-04-17T03:37:27.101Z,86.67
2018-04-17T03:39:56.285Z,83.93
2018-04-17T03:42:25.489Z,84.70
2018-04-17T03:44:54.605Z,88.07
2018-04-17T03:47:23.716Z,85.57
2018-04-17T03:49:52.900Z,85.97
2018-04-17T03:52:22.036Z,83.40
2018-04-17T03:54:51.172Z,82.07
2018-04-17T03:57:20.318Z,84.47
2018-04-17T03:59:49.844Z,88.87
2018-04-17T04:02:19.080Z,86.57
2018-04-17T04:04:48.203Z,86.50
2018-04-17T04:07:17.321Z,87.13
2018-04-17T04:09:46.475Z,88.10
2018-04-17T04:12:15.602Z,87.20
2018-04-17T04:14:44.743Z,83.97
2018-04-17T04:17:19.717Z,82.77
2018-04-17T04:19:54.722Z,84.77
2018-04-17T04:22:29.720Z,86.50
2018-04-17T04:25:04.712Z,85.30
2018-04-17T04:27:33.903Z,83.90
2018-04-17T04:30:03.581Z,84.33
2018-04-17T04:32:32.697Z,87.27
2018-04-17T04:35:01.900Z,83.20
2018-04-17T04:37:31.060Z,88.53
2018-04-17T04:40:00.180Z,85.00
2018-04-17T04:42:29.358Z,84.50
2018-04-17T04:44:58.503Z,84.87
2018-04-17T04:47:27.632Z,82.47
2018-04-17T04:49:56.784Z,82.57
2018-04-17T04:52:25.901Z,84.63
2018-04-17T04:54:55.023Z,83.27
2018-04-17T04:57:24.164Z,82.97
2018-04-17T04:59:53.340Z,89.10
2018-04-17T05:02:22.508Z,87.30
2018-04-17T05:04:51.621Z,86.90
2018-04-17T05:07:20.759Z,85.20
2018-04-17T05:09:49.927Z,85.70
2018-04-17T05:12:19.052Z,84.20
2018-04-17T05:14:48.189Z,84.20
2018-04-17T05:17:17.344Z,83.30
2018-04-17T05:19:46.461Z,90.37
2018-04-17T05:22:15.624Z,81.17
2018-04-17T05:24:45.351Z,85.37
2018-04-17T05:27:14.500Z,83.00
2018-04-17T05:29:43.632Z,85.93
2018-04-17T05:32:12.780Z,85.67
2018-04-17T05:34:41.898Z,84.90
2018-04-17T05:37:11.036Z,92.20
2018-04-17T05:39:40.197Z,88.30
2018-04-17T05:42:09.314Z,80.97
2018-04-17T05:44:38.432Z,82.10
2018-04-17T05:47:07.580Z,85.00
2018-04-17T05:49:36.713Z,78.20
2018-04-17T05:52:05.870Z,79.30
2018-04-17T05:54:35.034Z,80.20
2018-04-17T05:57:04.172Z,78.17
2018-04-17T05:59:33.283Z,78.10
2018-04-17T06:02:02.444Z,78.20
2018-04-17T06:04:31.555Z,76.87
2018-04-17T06:07:00.681Z,80.37
2018-04-17T06:09:29.834Z,76.13
2018-04-17T06:11:58.970Z,76.57
2018-04-17T06:14:28.075Z,77.70
2018-04-17T06:16:57.263Z,73.60
2018-04-17T06:19:26.403Z,75.30
2018-04-17T06:21:55.539Z,77.70
2018-04-17T06:24:24.709Z,74.63
2018-04-17T06:26:54.545Z,79.40
2018-04-17T06:29:23.661Z,74.77
2018-04-17T06:31:52.812Z,75.67
2018-04-17T06:34:21.915Z,77.33
2018-04-17T06:36:51.036Z,74.43
2018-04-17T06:39:20.177Z,76.50
2018-04-17T06:41:49.364Z,76.17
2018-04-17T06:44:18.496Z,80.17
2018-04-17T06:46:47.640Z,80.77
2018-04-17T06:49:16.783Z,78.57
2018-04-17T06:51:45.904Z,81.70
2018-04-17T06:54:15.059Z,79.43
2018-04-17T06:56:44.235Z,79.10
2018-04-17T06:59:13.409Z,85.30
2018-04-17T07:01:42.546Z,78.60
2018-04-17T07:04:11.739Z,82.20
2018-04-17T07:06:40.883Z,79.47
2018-04-17T07:09:09.990Z,79.67
2018-04-17T07:11:39.161Z,81.10
2018-04-17T07:14:08.252Z,81.20
2018-04-17T07:16:37.365Z,79.10
2018-04-17T07:19:06.525Z,79.57
2018-04-17T07:21:35.657Z,80.53
2018-04-17T07:24:04.790Z,79.97
2018-04-17T07:26:33.956Z,79.97
2018-04-17T07:29:03.104Z,79.30
2018-04-17T07:31:32.295Z,83.27
2018-04-17T07:34:01.437Z,78.47
2018-04-17T07:36:30.563Z,77.27
2018-04-17T07:38:59.720Z,76.43
2018-04-17T07:41:28.848Z,80.80
2018-04-17T07:43:57.979Z,79.70
2018-04-17T07:46:27.125Z,78.07
2018-04-17T07:49:02.163Z,80.77
2018-04-17T07:51:31.337Z,78.27
2018-04-17T07:54:00.446Z,79.50
2018-04-17T07:56:29.576Z,77.70
2018-04-17T07:58:59.055Z,76.40
2018-04-17T08:01:28.188Z,76.67
2018-04-17T08:03:57.308Z,79.77
2018-04-17T08:06:26.448Z,77.20
2018-04-17T08:08:55.592Z,80.43
2018-04-17T08:11:24.703Z,76.83
2018-04-17T08:13:53.887Z,80.83
2018-04-17T08:16:23.000Z,76.80
2018-04-17T08:18:52.144Z,76.83
2018-04-17T08:21:21.288Z,78.90
2018-04-17T08:23:50.449Z,81.23
2018-04-17T08:26:19.579Z,76.33
2018-04-17T08:28:48.756Z,78.17
2018-04-17T08:31:18.102Z,80.27
2018-04-17T08:33:47.235Z,77.60
2018-04-17T08:36:16.384Z,79.40
2018-04-17T08:38:45.516Z,79.40
2018-04-17T08:41:14.637Z,76.77
2018-04-17T08:43:43.814Z,78.80
2018-04-17T08:46:12.937Z,84.17
2018-04-17T08:48:42.088Z,78.70
2018-04-17T08:51:11.257Z,77.63
2018-04-17T08:53:40.416Z,78.27
2018-04-17T08:56:09.553Z,78.77
2018-04-17T08:58:38.706Z,83.30
2018-04-17T09:01:07.813Z,79.27
2018-04-17T09:03:36.951Z,77.53
2018-04-17T09:06:06.119Z,78.33
2018-04-17T09:08:35.231Z,78.10
2018-04-17T09:11:04.383Z,77.70
2018-04-17T09:13:33.537Z,76.40
2018-04-17T09:16:02.676Z,77.80
2018-04-17T09:18:31.796Z,79.63
2018-04-17T09:21:00.967Z,81.50
2018-04-17T09:23:30.110Z,75.87
2018-04-17T09:25:59.242Z,76.57
2018-04-17T09:28:28.396Z,79.40
2018-04-17T09:30:57.528Z,79.17
2018-04-17T09:33:26.640Z,77.80
2018-04-17T09:35:55.789Z,78.30
2018-04-17T09:38:24.908Z,76.60
2018-04-17T09:40:54.028Z,78.63
2018-04-17T09:43:23.183Z,75.47
2018-04-17T09:45:52.324Z,86.83
2018-04-17T09:48:21.474Z,76.90
2018-04-17T09:50:50.596Z,78.20
2018-04-17T09:53:19.717Z,75.20
2018-04-17T09:55:48.825Z,77.67
2018-04-17T09:58:17.973Z,78.60
2018-04-17T10:00:52.904Z,76.70
2018-04-17T10:03:22.056Z,78.73
2018-04-17T10:05:51.183Z,77.00
2018-04-17T10:08:20.296Z,79.87
2018-04-17T10:10:49.463Z,76.80
2018-04-17T10:13:18.593Z,77.53
2018-04-17T10:15:47.799Z,81.10
2018-04-17T10:18:16.968Z,78.23
2018-04-17T10:20:46.090Z,80.20
2018-04-17T10:23:15.264Z,79.87
2018-04-17T10:25:44.408Z,76.57
2018-04-17T10:28:13.653Z,77.00
2018-04-17T10:30:42.811Z,75.97
2018-04-17T10:33:12.822Z,75.10
2018-04-17T10:35:41.963Z,76.30
2018-04-17T10:38:11.123Z,79.10
2018-04-17T10:40:40.266Z,76.70
2018-04-17T10:43:09.379Z,76.37
2018-04-17T10:45:38.518Z,75.00
2018-04-17T10:48:07.640Z,75.07
2018-04-17T10:50:36.807Z,78.50
2018-04-17T10:53:05.950Z,76.10
2018-04-17T10:55:35.077Z,75.00
2018-04-17T10:58:04.241Z,76.40
2018-04-17T11:00:33.372Z,75.93
2018-04-17T11:03:02.560Z,79.27
2018-04-17T11:05:31.709Z,76.90
2018-04-17T11:08:00.840Z,79.30
2018-04-17T11:10:30.026Z,75.33
2018-04-17T11:12:59.159Z,73.87
2018-04-17T11:15:28.269Z,75.50
2018-04-17T11:17:57.422Z,73.33
2018-04-17T11:20:26.557Z,76.47
2018-04-17T11:22:55.738Z,73.43
2018-04-17T11:25:24.917Z,76.97
2018-04-17T11:27:54.036Z,73.70
2018-04-17T11:30:23.160Z,73.80
2018-04-17T11:32:52.333Z,74.37
2018-04-17T11:35:21.465Z,76.27
2018-04-17T11:37:50.812Z,72.57
2018-04-17T11:40:19.981Z,73.20
2018-04-17T11:42:49.085Z,75.50
2018-04-17T11:45:18.210Z,74.00
2018-04-17T11:47:47.406Z,72.30
2018-04-17T11:50:16.559Z,72.33
2018-04-17T11:52:45.680Z,73.70
2018-04-17T11:55:14.879Z,74.90
2018-04-17T11:57:43.992Z,73.70
2018-04-17T12:00:13.136Z,73.07
2018-04-17T12:02:42.306Z,73.20
2018-04-17T12:05:11.502Z,73.47
2018-04-17T12:07:40.592Z,73.60
2018-04-17T12:10:09.755Z,73.40
2018-04-17T12:12:38.868Z,73.70
2018-04-17T12:15:08.010Z,72.13
2018-04-17T12:17:37.174Z,72.93
2018-04-17T12:20:06.300Z,73.87
2018-04-17T12:22:35.452Z,75.20
2018-04-17T12:25:04.613Z,72.30
2018-04-17T12:27:33.802Z,72.03
2018-04-17T12:30:02.949Z,71.47
2018-04-17T12:32:32.070Z,71.83
2018-04-17T12:35:01.238Z,76.17
2018-04-17T12:37:30.383Z,71.97
2018-04-17T12:39:59.602Z,71.40
2018-04-17T12:42:28.763Z,72.90
2018-04-17T12:44:57.897Z,72.20
2018-04-17T12:47:27.032Z,72.73
2018-04-17T12:49:56.164Z,73.10
2018-04-17T12:52:25.308Z,73.30
2018-04-17T12:54:54.420Z,73.83
2018-04-17T12:57:23.594Z,74.97
2018-04-17T12:59:52.712Z,71.87
2018-04-17T13:02:21.821Z,73.30
2018-04-17T13:04:50.980Z,73.27
2018-04-17T13:07:20.164Z,74.47
2018-04-17T13:09:49.280Z,75.97
2018-04-17T13:12:18.434Z,72.40
2018-04-17T13:14:47.552Z,74.03
2018-04-17T13:17:16.701Z,75.27
2018-04-17T13:19:45.847Z,75.23
2018-04-17T13:22:15.649Z,74.20
2018-04-17T13:24:44.764Z,74.30
2018-04-17T13:27:13.935Z,73.63
2018-04-17T13:29:43.075Z,75.87
2018-04-17T13:32:12.257Z,73.97
2018-04-17T13:34:41.460Z,74.10
2018-04-17T13:37:10.577Z,73.97
2018-04-17T13:39:39.943Z,73.07
2018-04-17T13:42:09.111Z,73.60
2018-04-17T13:44:38.260Z,74.20
2018-04-17T13:47:07.419Z,71.57
2018-04-17T13:49:36.553Z,72.93
2018-04-17T13:52:05.705Z,72.50
2018-04-17T13:54:35.280Z,73.73
2018-04-17T13:57:04.416Z,77.47
2018-04-17T13:59:33.528Z,73.77
2018-04-17T14:02:02.693Z,72.70
2018-04-17T14:04:31.837Z,74.10
2018-04-17T14:07:00.984Z,75.70
2018-04-17T14:09:30.121Z,74.50
2018-04-17T14:11:59.264Z,75.60
2018-04-17T14:14:28.432Z,74.00
2018-04-17T14:16:57.544Z,74.77
2018-04-17T14:19:26.695Z,75.50
2018-04-17T14:21:55.865Z,77.97
2018-04-17T14:24:24.971Z,75.30
2018-04-17T14:26:54.108Z,75.33
2018-04-17T14:29:23.360Z,74.63
2018-04-17T14:31:52.496Z,75.77
2018-04-17T14:34:21.663Z,75.70
2018-04-17T14:36:50.836Z,76.13
2018-04-17T14:39:19.944Z,75.37
2018-04-17T14:41:49.048Z,74.67
2018-04-17T14:44:18.233Z,74.00
2018-04-17T14:46:47.364Z,72.93
2018-04-17T14:49:16.531Z,75.70
2018-04-17T14:51:45.649Z,73.90
2018-04-17T14:54:14.754Z,73.40
2018-04-17T14:56:43.928Z,72.67
2018-04-17T14:59:13.040Z,74.30
2018-04-17T15:01:42.170Z,74.77
2018-04-17T15:04:11.291Z,74.50
2018-04-17T15:06:40.416Z,76.37
2018-04-17T15:09:09.587Z,73.50
2018-04-17T15:11:38.707Z,72.20
2018-04-17T15:14:07.819Z,75.60
2018-04-17T15:16:36.970Z,73.87
2018-04-17T15:19:06.095Z,73.70
2018-04-17T15:21:35.214Z,71.67
2018-04-17T15:24:04.364Z,73.30
2018-04-17T15:26:33.530Z,71.70
2018-04-17T15:29:02.668Z,75.53
2018-04-17T15:31:31.801Z,74.80
2018-04-17T15:34:01.050Z,74.40
2018-04-17T15:36:30.185Z,72.37
2018-04-17T15:38:59.324Z,74.93
2018-04-17T15:41:28.485Z,73.00
2018-04-17T15:43:57.646Z,75.87
2018-04-17T15:46:26.855Z,73.07
2018-04-17T15:48:55.996Z,75.53
2018-04-17T15:51:25.111Z,72.37
2018-04-17T15:53:54.260Z,73.40
2018-04-17T15:56:23.409Z,75.37
2018-04-17T15:58:52.596Z,76.17
2018-04-17T16:01:21.887Z,76.17
2018-04-17T16:03:51.000Z,73.37
2018-04-17T16:06:20.143Z,72.90
2018-04-17T16:08:49.286Z,72.63
2018-04-17T16:11:18.422Z,73.10
2018-04-17T16:13:47.533Z,73.97
2018-04-17T16:16:16.696Z,74.57
2018-04-17T16:18:45.884Z,72.53
2018-04-17T16:21:15.061Z,74.90
2018-04-17T16:23:44.200Z,74.87
2018-04-17T16:26:13.322Z,75.40
2018-04-17T16:28:42.460Z,76.50
2018-04-17T16:31:11.604Z,79.70
2018-04-17T16:33:40.728Z,82.20
2018-04-17T16:36:09.888Z,74.57
2018-04-17T16:38:39.044Z,74.17
2018-04-17T16:41:08.194Z,75.90
2018-04-17T16:43:37.328Z,76.57
2018-04-17T16:46:06.481Z,75.30
2018-04-17T16:48:36.177Z,74.90
2018-04-17T16:51:05.312Z,74.80
2018-04-17T16:53:34.456Z,75.60
2018-04-17T16:56:03.592Z,76.33
2018-04-17T16:58:32.708Z,78.10
2018-04-17T17:01:01.857Z,76.33
2018-04-17T17:03:31.000Z,78.33
2018-04-17T17:06:00.146Z,78.03
2018-04-17T17:08:29.328Z,76.00
2018-04-17T17:10:58.450Z,75.87
2018-04-17T17:13:27.558Z,76.97
2018-04-17T17:15:56.706Z,75.80
2018-04-17T17:18:25.846Z,77.77
2018-04-17T17:20:54.965Z,77.77
2018-04-17T17:23:24.144Z,79.10
2018-04-17T17:25:53.282Z,75.70
2018-04-17T17:28:22.422Z,77.40
2018-04-17T17:30:51.563Z,81.00
2018-04-17T17:33:20.755Z,76.27
2018-04-17T17:35:49.897Z,78.57
2018-04-17T17:38:19.131Z,79.90
2018-04-17T17:40:48.196Z,75.80
2018-04-17T17:43:17.341Z,80.83
2018-04-17T17:45:46.487Z,76.97
2018-04-17T17:48:15.612Z,83.07
2018-04-17T17:50:44.745Z,82.43
2018-04-17T17:53:13.862Z,78.27
2018-04-17T17:55:43.043Z,75.73
2018-04-17T17:58:12.170Z,75.50
2018-04-17T18:00:41.320Z,78.43
2018-04-17T18:03:10.436Z,78.17
2018-04-17T18:05:39.637Z,79.00
2018-04-17T18:08:08.816Z,79.47
2018-04-17T18:10:37.955Z,82.63
2018-04-17T18:13:07.089Z,77.93
2018-04-17T18:15:36.309Z,77.77
2018-04-17T18:18:05.437Z,78.33
2018-04-17T18:20:34.546Z,76.87
2018-04-17T18:23:03.724Z,76.90
2018-04-17T18:25:32.957Z,79.60
2018-04-17T18:28:02.139Z,76.80
2018-04-17T18:30:31.400Z,78.30
2018-04-17T18:33:00.544Z,77.37
2018-04-17T18:35:29.684Z,77.10
2018-04-17T18:37:58.841Z,88.13
2018-04-17T18:40:28.005Z,78.27
2018-04-17T18:42:57.119Z,83.10
2018-04-17T18:45:26.388Z,78.00
2018-04-17T18:47:55.549Z,77.57
2018-04-17T18:50:24.677Z,78.97
2018-04-17T18:52:54.262Z,80.97
2018-04-17T18:55:23.404Z,81.77
2018-04-17T18:57:52.540Z,85.17
2018-04-17T19:00:21.725Z,83.40
2018-04-17T19:02:50.865Z,79.50
2018-04-17T19:05:20.051Z,81.73
2018-04-17T19:07:49.217Z,81.03
2018-04-17T19:10:18.345Z,78.80
2018-04-17T19:12:47.469Z,85.07
2018-04-17T19:15:16.615Z,81.97
2018-04-17T19:17:45.755Z,82.90
2018-04-17T19:20:14.910Z,90.10
2018-04-17T19:22:44.064Z,81.00
2018-04-17T19:25:13.222Z,83.50
2018-04-17T19:27:42.482Z,83.70
2018-04-17T19:30:11.669Z,82.20
2018-04-17T19:32:40.839Z,80.90
2018-04-17T19:35:09.960Z,80.50
2018-04-17T19:37:39.119Z,80.10
2018-04-17T19:40:08.313Z,81.27
2018-04-17T19:42:37.505Z,84.80
2018-04-17T19:45:06.641Z,81.77
2018-04-17T19:47:35.811Z,81.07
2018-04-17T19:50:04.953Z,82.80
2018-04-17T19:52:34.089Z,82.17
2018-04-17T19:55:03.248Z,79.27
2018-04-17T19:57:32.381Z,81.87
2018-04-17T20:00:01.577Z,80.30
2018-04-17T20:02:30.721Z,81.10
2018-04-17T20:04:59.867Z,82.37
2018-04-17T20:07:29.524Z,80.93
2018-04-17T20:09:58.645Z,81.37
2018-04-17T20:12:27.795Z,84.77
2018-04-17T20:14:56.964Z,80.93
2018-04-17T20:17:26.089Z,78.70
2018-04-17T20:19:55.208Z,80.60
2018-04-17T20:22:24.355Z,81.40
2018-04-17T20:24:53.497Z,81.27
2018-04-17T20:27:22.623Z,84.70
2018-04-17T20:29:51.784Z,84.53
2018-04-17T20:32:20.921Z,83.17
2018-04-17T20:34:50.069Z,80.70
2018-04-17T20:37:19.181Z,82.47
2018-04-17T20:39:48.291Z,81.57
2018-04-17T20:42:17.526Z,82.80
2018-04-17T20:44:46.629Z,80.10
2018-04-17T20:47:15.795Z,80.97
2018-04-17T20:49:45.024Z,80.60
2018-04-17T20:52:14.172Z,83.10
2018-04-17T20:54:43.304Z,83.50
2018-04-17T20:57:12.493Z,80.50
2018-04-17T20:59:41.665Z,81.93
2018-04-17T21:02:10.804Z,80.63
2018-04-17T21:04:39.980Z,82.57
2018-04-17T21:07:09.120Z,84.00
2018-04-17T21:09:38.952Z,79.30
2018-04-17T21:12:08.121Z,84.73
2018-04-17T21:14:37.465Z,79.93
2018-04-17T21:17:06.650Z,84.20
2018-04-17T21:19:35.803Z,81.67
2018-04-17T21:22:04.963Z,80.60
2018-04-17T21:24:34.148Z,80.70
2018-04-17T21:27:03.286Z,85.60
2018-04-17T21:29:32.457Z,82.60
2018-04-17T21:32:01.570Z,80.80
2018-04-17T21:34:30.721Z,80.90
2018-04-17T21:36:59.912Z,79.70
2018-04-17T21:39:29.044Z,80.67
2018-04-17T21:41:58.307Z,80.37
2018-04-17T21:44:27.426Z,82.10
2018-04-17T21:46:56.569Z,79.50
2018-04-17T21:49:25.741Z,81.47
2018-04-17T21:51:54.892Z,84.40
2018-04-17T21:54:24.051Z,82.47
2018-04-17T21:56:53.208Z,81.17
2018-04-17T21:59:22.360Z,81.77
2018-04-17T22:01:52.174Z,84.30
2018-04-17T22:04:21.453Z,82.07
2018-04-17T22:06:50.604Z,85.47
2018-04-17T22:09:19.810Z,81.70
2018-04-17T22:11:48.945Z,84.33
2018-04-17T22:14:18.700Z,84.80
2018-04-17T22:16:47.892Z,88.73
2018-04-17T22:19:17.026Z,86.60
2018-04-17T22:21:46.152Z,90.07
2018-04-17T22:24:15.337Z,82.67
2018-04-17T22:26:44.465Z,84.47
2018-04-17T22:29:13.618Z,81.80
2018-04-17T22:31:42.744Z,84.67
2018-04-17T22:34:11.901Z,82.70
2018-04-17T22:36:41.020Z,82.17
2018-04-17T22:39:10.291Z,81.80
2018-04-17T22:41:39.416Z,81.77
2018-04-17T22:44:08.546Z,83.17
2018-04-17T22:46:37.709Z,85.40
2018-04-17T22:49:06.835Z,83.67
2018-04-17T22:51:36.019Z,81.80
2018-04-17T22:54:05.236Z,81.40
2018-04-17T22:56:34.405Z,83.80
2018-04-17T22:59:03.553Z,82.30
2018-04-17T23:01:32.712Z,82.37
2018-04-17T23:04:01.905Z,82.80
2018-04-17T23:06:31.042Z,85.60
2018-04-17T23:09:00.194Z,83.40
2018-04-17T23:11:29.328Z,85.10
2018-04-17T23:13:58.477Z,82.80
2018-04-17T23:16:28.803Z,84.27
2018-04-17T23:18:57.960Z,84.53
2018-04-17T23:21:27.757Z,87.70
2018-04-17T23:23:57.051Z,86.80
2018-04-17T23:26:26.187Z,92.93
2018-04-17T23:28:55.405Z,85.50
2018-04-17T23:31:24.621Z,86.90
2018-04-17T23:33:53.735Z,85.20
2018-04-17T23:36:22.905Z,85.70
2018-04-17T23:38:52.090Z,87.90
2018-04-17T23:41:21.244Z,86.60
2018-04-17T23:43:50.367Z,90.70
2018-04-17T23:46:19.532Z,97.17
2018-04-17T23:48:48.701Z,94.03
2018-04-17T23:51:17.971Z,92.30
2018-04-17T23:53:47.115Z,96.27
2018-04-17T23:56:16.254Z,98.07
2018-04-17T23:58:45.387Z,99.10
